EmailTwitter


Surface observations / United Kingdom / EGLL (03772)

Regions: Quebec | Canada | USA | Europe | France | UK | Elsewhere
Station
Display
Info & Location for EGLL (03772) | Help decoding METAR

Weather Conditions observed on 2018/10/23 at 03:20 UTC at LONDON/HEATHROW, UK (EGLL)

Temperature: 6.0 Celsius.

Dewpoint: 4.0 Celsius.

Relative Humidity: 87%

Windchill Factor: 3.

Winds: West-southwest at 13 km/h or 7 knots.

Mean Sea level Pressure: 103.30 kilopascals.

Horizontal visibility: 6.21 statute miles or 9.94 kilometers.

Coded METAR:

EGLL 230320Z AUTO 25007KT 9999 NCD 06/04 Q1033 NOSIG=